createdAt,value
2022-12-19T00:00:48.011Z,76.90
2022-12-19T00:03:30.026Z,73.80
2022-12-19T00:06:03.820Z,83.10
2022-12-19T00:08:35.397Z,88.40
2022-12-19T00:11:05.780Z,74.20
2022-12-19T00:13:40.968Z,82.40
2022-12-19T00:16:13.302Z,90.40
2022-12-19T00:18:45.664Z,97.60
2022-12-19T00:21:16.800Z,88.80
2022-12-19T00:23:48.567Z,84.90
2022-12-19T00:26:20.655Z,93.70
2022-12-19T00:28:53.164Z,86.30
2022-12-19T00:31:24.125Z,96.30
2022-12-19T00:33:55.418Z,97.40
2022-12-19T00:36:27.757Z,94.20
2022-12-19T00:38:59.854Z,84.90
2022-12-19T00:41:31.626Z,88.80
2022-12-19T00:44:03.396Z,92.10
2022-12-19T00:46:35.491Z,86.00
2022-12-19T00:49:06.876Z,79.40
2022-12-19T00:51:37.837Z,90.90
2022-12-19T00:54:12.064Z,87.60
2022-12-19T00:56:43.469Z,86.70
2022-12-19T00:59:14.393Z,89.50
2022-12-19T01:01:47.901Z,89.20
2022-12-19T01:04:28.222Z,82.30
2022-12-19T01:07:02.739Z,88.10
2022-12-19T01:09:37.470Z,84.30
2022-12-19T01:12:26.354Z,88.40
2022-12-19T01:15:01.694Z,95.10
2022-12-19T01:17:42.344Z,92.80
2022-12-19T01:20:17.046Z,95.70
2022-12-19T01:22:49.967Z,96.60
2022-12-19T01:25:20.908Z,86.90
2022-12-19T01:27:51.669Z,96.00
2022-12-19T01:30:22.829Z,92.80
2022-12-19T01:32:53.951Z,93.60
2022-12-19T01:35:25.084Z,91.40
2022-12-19T01:38:08.132Z,100.50
2022-12-19T01:40:39.869Z,92.60
2022-12-19T01:43:14.779Z,90.60
2022-12-19T01:45:46.466Z,103.10
2022-12-19T01:48:19.425Z,96.10
2022-12-19T01:51:01.260Z,105.20
2022-12-19T01:53:48.368Z,105.10
2022-12-19T01:56:23.989Z,103.50
2022-12-19T01:59:06.404Z,90.00
2022-12-19T02:01:50.963Z,91.50
2022-12-19T02:04:32.025Z,93.50
2022-12-19T02:07:10.917Z,106.30
2022-12-19T02:09:50.547Z,85.10
2022-12-19T02:12:29.848Z,113.50
2022-12-19T02:15:03.057Z,98.30
2022-12-19T02:17:39.322Z,97.60
2022-12-19T02:20:23.344Z,89.20
2022-12-19T02:23:03.571Z,93.80
2022-12-19T02:25:44.711Z,78.40
2022-12-19T02:28:30.078Z,96.40
2022-12-19T02:31:13.793Z,105.10
2022-12-19T02:33:53.077Z,90.80
2022-12-19T02:36:32.443Z,101.90
2022-12-19T02:39:12.121Z,89.70
2022-12-19T02:41:45.998Z,98.40
2022-12-19T02:44:23.566Z,101.00
2022-12-19T02:46:54.305Z,108.40
2022-12-19T02:49:30.499Z,89.20
2022-12-19T02:52:11.184Z,88.30
2022-12-19T02:54:42.356Z,111.70
2022-12-19T02:57:19.774Z,91.30
2022-12-19T02:59:57.561Z,89.80
2022-12-19T03:02:34.123Z,93.50
2022-12-19T03:05:09.860Z,95.90
2022-12-19T03:07:43.807Z,91.90
2022-12-19T03:10:20.076Z,86.70
2022-12-19T03:12:54.883Z,104.70
2022-12-19T03:15:27.899Z,102.10
2022-12-19T03:18:00.088Z,95.40
2022-12-19T03:20:37.114Z,84.30
2022-12-19T03:23:07.759Z,107.90
2022-12-19T03:25:39.659Z,79.30
2022-12-19T03:28:13.031Z,81.50
2022-12-19T03:30:44.618Z,103.70
2022-12-19T03:33:15.100Z,99.60
2022-12-19T03:35:47.691Z,93.20
2022-12-19T03:38:19.532Z,87.70
2022-12-19T03:40:51.300Z,102.30
2022-12-19T03:43:23.254Z,84.40
2022-12-19T03:45:56.608Z,83.20
2022-12-19T03:48:30.833Z,81.50
2022-12-19T03:51:07.217Z,87.10
2022-12-19T03:53:45.982Z,82.40
2022-12-19T03:56:19.796Z,69.80
2022-12-19T03:58:53.361Z,73.10
2022-12-19T04:03:53.652Z,92.80
2022-12-19T04:06:24.541Z,88.30
2022-12-19T04:08:55.383Z,94.30
2022-12-19T04:11:27.750Z,97.30
2022-12-19T04:14:00.278Z,92.90
2022-12-19T04:16:33.914Z,86.60
2022-12-19T04:19:06.963Z,92.60
2022-12-19T04:21:41.168Z,82.20
2022-12-19T04:24:13.495Z,79.20
2022-12-19T04:26:46.543Z,104.00
2022-12-19T04:29:17.732Z,85.30
2022-12-19T04:31:49.412Z,85.40
2022-12-19T04:34:20.966Z,86.10
2022-12-19T04:36:52.425Z,76.20
2022-12-19T04:39:23.417Z,86.20
2022-12-19T04:41:55.802Z,74.00
2022-12-19T04:44:26.587Z,73.50
2022-12-19T04:46:57.133Z,83.90
2022-12-19T04:49:27.707Z,72.30
2022-12-19T04:51:58.629Z,71.00
2022-12-19T04:54:29.759Z,72.50
2022-12-19T04:57:00.741Z,70.10
2022-12-19T04:59:31.838Z,71.90
2022-12-19T05:02:02.627Z,77.50
2022-12-19T05:04:33.322Z,80.30
2022-12-19T05:07:03.850Z,85.50
2022-12-19T05:09:34.711Z,68.30
2022-12-19T05:12:05.543Z,88.50
2022-12-19T05:14:36.402Z,82.90
2022-12-19T05:17:07.172Z,72.80
2022-12-19T05:19:37.912Z,77.40
2022-12-19T05:22:08.581Z,70.10
2022-12-19T05:24:39.278Z,71.90
2022-12-19T05:27:09.802Z,73.80
2022-12-19T05:29:40.592Z,71.40
2022-12-19T05:32:11.204Z,69.30
2022-12-19T05:34:42.011Z,67.80
2022-12-19T05:37:13.452Z,76.60
2022-12-19T05:39:44.152Z,72.50
2022-12-19T05:42:14.746Z,69.20
2022-12-19T05:44:45.557Z,69.20
2022-12-19T05:47:16.273Z,68.60
2022-12-19T05:49:47.008Z,64.20
2022-12-19T05:52:18.107Z,83.40
2022-12-19T05:54:49.095Z,75.70
2022-12-19T05:57:19.535Z,78.70
2022-12-19T05:59:50.353Z,84.60
2022-12-19T06:02:21.880Z,68.00
2022-12-19T06:04:52.635Z,77.10
2022-12-19T06:07:23.424Z,83.30
2022-12-19T06:09:54.155Z,87.80
2022-12-19T06:12:24.775Z,87.90
2022-12-19T06:14:55.654Z,86.30
2022-12-19T06:17:26.308Z,98.50
2022-12-19T06:19:57.156Z,85.70
2022-12-19T06:22:27.694Z,91.90
2022-12-19T06:24:58.298Z,94.70
2022-12-19T06:27:28.768Z,92.40
2022-12-19T06:29:59.346Z,88.30
2022-12-19T06:32:34.770Z,93.60
2022-12-19T06:35:09.301Z,99.10
2022-12-19T06:37:40.051Z,95.80
2022-12-19T06:40:33.113Z,94.40
2022-12-19T06:43:03.681Z,91.40
2022-12-19T06:45:34.305Z,98.50
2022-12-19T06:48:05.465Z,71.60
2022-12-19T06:50:37.071Z,95.20
2022-12-19T06:53:08.820Z,90.80
2022-12-19T06:55:39.560Z,94.20
2022-12-19T06:58:10.188Z,96.30
2022-12-19T07:00:40.848Z,79.70
2022-12-19T07:03:13.128Z,82.00
2022-12-19T07:05:43.924Z,84.70
2022-12-19T07:08:14.761Z,94.00
2022-12-19T07:10:45.524Z,85.80
2022-12-19T07:13:16.452Z,94.20
2022-12-19T07:15:46.963Z,78.70
2022-12-19T07:18:18.448Z,96.00
2022-12-19T07:20:49.272Z,91.20
2022-12-19T07:23:21.785Z,89.60
2022-12-19T07:25:52.358Z,97.70
2022-12-19T07:28:23.286Z,98.70
2022-12-19T07:30:53.850Z,92.10
2022-12-19T07:33:24.612Z,74.80
2022-12-19T07:35:55.168Z,98.70
2022-12-19T07:38:26.010Z,93.60
2022-12-19T07:40:56.647Z,101.00
2022-12-19T07:43:27.755Z,91.60
2022-12-19T07:45:58.554Z,92.30
2022-12-19T07:48:30.280Z,75.30
2022-12-19T07:51:00.715Z,95.50
2022-12-19T07:53:34.547Z,82.70
2022-12-19T07:56:05.238Z,88.60
2022-12-19T07:58:36.077Z,83.50
2022-12-19T08:01:07.449Z,92.90
2022-12-19T08:03:39.126Z,83.60
2022-12-19T08:06:09.917Z,80.60
2022-12-19T08:08:40.778Z,92.10
2022-12-19T08:11:12.286Z,79.30
2022-12-19T08:13:46.378Z,86.60
2022-12-19T08:16:18.300Z,96.20
2022-12-19T08:18:49.302Z,87.60
2022-12-19T08:21:20.171Z,92.90
2022-12-19T08:23:50.772Z,92.40
2022-12-19T08:26:25.483Z,84.60
2022-12-19T08:28:57.459Z,93.00
2022-12-19T08:31:29.701Z,95.00
2022-12-19T08:34:00.346Z,72.80
2022-12-19T08:36:30.890Z,89.80
2022-12-19T08:39:02.178Z,80.60
2022-12-19T08:41:33.077Z,94.10
2022-12-19T08:44:03.879Z,97.10
2022-12-19T08:46:34.670Z,96.70
2022-12-19T08:49:05.525Z,96.80
2022-12-19T08:51:36.120Z,91.30
2022-12-19T08:54:07.794Z,83.40
2022-12-19T08:56:46.826Z,86.30
2022-12-19T08:59:22.869Z,92.20
2022-12-19T09:02:02.458Z,88.90
2022-12-19T09:05:07.365Z,83.40
2022-12-19T09:07:24.027Z,99.60
2022-12-19T09:09:54.972Z,95.90
2022-12-19T09:12:25.770Z,101.50
2022-12-19T09:14:56.433Z,101.30
2022-12-19T09:17:27.028Z,82.40
2022-12-19T09:19:57.894Z,95.90
2022-12-19T09:22:29.402Z,96.40
2022-12-19T09:25:00.490Z,108.40
2022-12-19T09:27:31.064Z,96.70
2022-12-19T09:30:02.338Z,98.80
2022-12-19T09:32:33.296Z,83.10
2022-12-19T09:35:04.289Z,93.90
2022-12-19T09:37:34.935Z,95.70
2022-12-19T09:40:06.556Z,94.80
2022-12-19T09:42:52.370Z,92.90
2022-12-19T09:45:40.823Z,100.00
2022-12-19T09:48:23.593Z,89.20
2022-12-19T09:51:09.975Z,106.10
2022-12-19T09:53:46.007Z,96.60
2022-12-19T09:56:27.649Z,100.30
2022-12-19T09:59:00.156Z,97.70
2022-12-19T10:01:34.238Z,98.80
2022-12-19T10:04:07.004Z,110.60
2022-12-19T10:07:06.921Z,89.70
2022-12-19T10:11:28.718Z,99.80
2022-12-19T10:12:43.778Z,86.90
2022-12-19T10:15:23.956Z,100.90
2022-12-19T10:18:06.591Z,102.40
2022-12-19T10:20:39.569Z,107.60
2022-12-19T10:23:17.688Z,103.20
2022-12-19T10:25:53.733Z,88.50
2022-12-19T10:28:33.116Z,84.90
2022-12-19T10:31:17.222Z,83.90
2022-12-19T10:33:56.272Z,94.70
2022-12-19T10:36:55.804Z,85.30
2022-12-19T10:39:24.046Z,86.50
2022-12-19T10:41:57.421Z,88.40
2022-12-19T10:44:29.803Z,92.70
2022-12-19T10:47:00.639Z,102.00
2022-12-19T10:49:35.145Z,103.30
2022-12-19T10:52:08.080Z,89.40
2022-12-19T10:54:44.240Z,101.60
2022-12-19T10:57:26.475Z,103.00
2022-12-19T10:59:58.122Z,93.50
2022-12-19T11:02:35.831Z,96.30
2022-12-19T11:05:08.352Z,93.30
2022-12-19T11:07:39.147Z,87.90
2022-12-19T11:12:38.585Z,84.40
2022-12-19T11:17:45.676Z,90.20
2022-12-19T11:22:20.656Z,80.60
2022-12-19T11:29:25.025Z,84.70
2022-12-19T11:29:32.817Z,80.50
2022-12-19T11:30:25.575Z,84.80
2022-12-19T11:30:49.021Z,85.60
2022-12-19T11:32:20.569Z,77.80
2022-12-19T11:33:55.290Z,85.10
2022-12-19T11:36:31.749Z,86.70
2022-12-19T11:39:04.186Z,81.20
2022-12-19T11:41:38.413Z,88.50
2022-12-19T11:44:13.519Z,83.20
2022-12-19T11:46:46.307Z,92.30
2022-12-19T11:49:25.090Z,81.50
2022-12-19T11:51:57.583Z,81.40
2022-12-19T11:54:30.581Z,94.10
2022-12-19T11:57:01.842Z,83.30
2022-12-19T11:59:33.554Z,88.30
2022-12-19T12:02:10.637Z,95.60
2022-12-19T12:04:52.977Z,93.20
2022-12-19T12:07:31.897Z,91.20
2022-12-19T12:14:01.902Z,87.00
2022-12-19T12:20:54.211Z,90.10
2022-12-19T12:29:05.463Z,84.60
2022-12-19T12:31:04.117Z,87.50
2022-12-19T12:31:23.724Z,86.50
2022-12-19T12:31:49.076Z,86.50
2022-12-19T12:31:52.920Z,88.60
2022-12-19T12:31:55.329Z,83.30
2022-12-19T12:35:34.428Z,92.10
2022-12-19T12:39:26.681Z,97.70
2022-12-19T12:42:05.001Z,98.90
2022-12-19T12:44:44.837Z,87.50
2022-12-19T12:47:19.236Z,87.10
2022-12-19T12:49:53.118Z,104.70
2022-12-19T12:52:28.178Z,93.40
2022-12-19T12:54:59.416Z,101.40
2022-12-19T12:57:37.656Z,90.20
2022-12-19T13:00:23.063Z,106.20
2022-12-19T13:02:55.812Z,99.40
2022-12-19T13:05:36.062Z,94.40
2022-12-19T13:08:19.981Z,104.10
2022-12-19T13:10:56.566Z,109.00
2022-12-19T13:13:40.489Z,105.60
2022-12-19T13:16:24.714Z,98.60
2022-12-19T13:19:04.604Z,104.20
2022-12-19T13:21:50.185Z,102.40
2022-12-19T13:24:23.385Z,101.00
2022-12-19T13:29:30.365Z,104.00
2022-12-19T13:32:11.264Z,96.00
2022-12-19T13:34:53.835Z,103.00
2022-12-19T13:39:50.749Z,100.20
2022-12-19T13:40:33.940Z,109.20
2022-12-19T13:43:31.068Z,96.20
2022-12-19T13:46:02.600Z,100.70
2022-12-19T13:48:34.878Z,103.60
2022-12-19T13:51:08.119Z,106.10
2022-12-19T13:56:12.945Z,103.00
2022-12-19T13:58:48.564Z,102.40
2022-12-19T14:01:23.047Z,105.60
2022-12-19T14:03:55.179Z,103.20
2022-12-19T14:06:27.040Z,95.60
2022-12-19T14:11:25.222Z,103.70
2022-12-19T14:13:44.399Z,101.70
2022-12-19T14:15:13.164Z,103.30
2022-12-19T14:17:48.942Z,106.50
2022-12-19T14:22:04.278Z,99.30
2022-12-19T14:23:16.003Z,100.80
2022-12-19T14:28:15.564Z,101.60
2022-12-19T14:28:54.920Z,97.70
2022-12-19T14:31:26.650Z,93.00
2022-12-19T14:34:19.059Z,100.60
2022-12-19T14:36:51.364Z,96.20
2022-12-19T14:39:29.347Z,96.50
2022-12-19T14:42:31.733Z,96.10
2022-12-19T14:51:51.680Z,91.20
2022-12-19T14:52:36.099Z,97.60
2022-12-19T14:54:26.802Z,110.40
2022-12-19T14:56:09.469Z,87.70
2022-12-19T14:57:50.628Z,87.50
2022-12-19T15:01:07.448Z,102.10
2022-12-19T15:03:18.558Z,98.70
2022-12-19T15:05:49.774Z,92.40
2022-12-19T15:08:28.108Z,100.00
2022-12-19T15:11:58.241Z,99.70
2022-12-19T15:14:56.644Z,98.00
2022-12-19T15:17:29.913Z,105.10
2022-12-19T15:20:00.863Z,93.20
2022-12-19T15:22:31.940Z,107.70
2022-12-19T15:25:02.643Z,99.20
2022-12-19T15:27:33.817Z,105.50
2022-12-19T15:30:04.485Z,100.60
2022-12-19T15:32:35.545Z,103.40
2022-12-19T15:35:09.683Z,93.30
2022-12-19T15:37:40.901Z,118.10
2022-12-19T15:40:15.441Z,101.00
2022-12-19T15:42:48.757Z,101.00
2022-12-19T15:45:20.190Z,97.20
2022-12-19T15:47:51.360Z,95.30
2022-12-19T15:50:22.871Z,98.90
2022-12-19T15:52:55.607Z,95.50
2022-12-19T15:55:28.447Z,100.00
2022-12-19T15:58:01.057Z,95.40
2022-12-19T16:00:33.999Z,99.40
2022-12-19T16:05:55.382Z,104.90
2022-12-19T16:08:26.682Z,92.90
2022-12-19T16:11:01.665Z,95.90
2022-12-19T16:13:35.602Z,100.50
2022-12-19T16:16:13.034Z,107.10
2022-12-19T16:18:46.504Z,94.00
2022-12-19T16:21:33.241Z,106.80
2022-12-19T16:24:05.151Z,106.20
2022-12-19T16:26:36.849Z,108.60
2022-12-19T16:29:12.687Z,106.50
2022-12-19T16:31:43.182Z,110.70
2022-12-19T16:34:15.633Z,109.00
2022-12-19T16:36:46.425Z,98.70
2022-12-19T16:39:17.558Z,99.90
2022-12-19T16:41:48.392Z,104.40
2022-12-19T16:44:20.646Z,109.10
2022-12-19T16:46:51.710Z,108.90
2022-12-19T16:49:23.990Z,103.90
2022-12-19T16:51:54.500Z,114.50
2022-12-19T16:54:25.861Z,115.50
2022-12-19T16:56:56.479Z,107.30
2022-12-19T16:59:28.639Z,105.20
2022-12-19T17:02:00.405Z,100.90
2022-12-19T17:04:31.747Z,102.10
2022-12-19T17:07:02.162Z,95.10
2022-12-19T17:09:33.591Z,101.10
2022-12-19T17:12:04.088Z,100.80
2022-12-19T17:14:35.611Z,107.80
2022-12-19T17:17:06.190Z,104.80
2022-12-19T17:19:38.313Z,95.50
2022-12-19T17:22:12.116Z,103.00
2022-12-19T17:24:43.212Z,99.80
2022-12-19T17:27:14.169Z,100.10
2022-12-19T17:29:45.925Z,111.60
2022-12-19T17:32:23.461Z,111.90
2022-12-19T17:34:55.086Z,109.60
2022-12-19T17:37:25.516Z,101.30
2022-12-19T17:39:56.553Z,112.20
2022-12-19T17:42:33.646Z,105.50
2022-12-19T17:45:09.402Z,113.80
2022-12-19T17:47:40.040Z,119.00
2022-12-19T17:50:18.747Z,110.40
2022-12-19T17:52:49.968Z,108.10
2022-12-19T17:55:22.436Z,113.20
2022-12-19T17:57:53.266Z,119.20
2022-12-19T18:00:30.323Z,121.00
2022-12-19T18:03:03.004Z,127.80
2022-12-19T18:05:36.121Z,125.70
2022-12-19T18:08:08.153Z,117.20
2022-12-19T18:10:38.999Z,122.30
2022-12-19T18:13:09.470Z,123.80
2022-12-19T18:15:41.537Z,124.60
2022-12-19T18:18:13.631Z,109.20
2022-12-19T18:20:45.153Z,121.80
2022-12-19T18:23:18.542Z,112.10
2022-12-19T18:25:51.039Z,107.10
2022-12-19T18:28:23.972Z,99.70
2022-12-19T18:30:57.479Z,103.40
2022-12-19T18:35:57.587Z,110.10
2022-12-19T18:38:28.128Z,105.10
2022-12-19T18:40:59.187Z,101.50
2022-12-19T18:43:31.473Z,118.20
2022-12-19T18:46:02.228Z,106.80
2022-12-19T18:48:34.635Z,99.90
2022-12-19T18:51:06.246Z,103.00
2022-12-19T18:53:36.913Z,111.90
2022-12-19T18:56:08.037Z,92.20
2022-12-19T18:58:38.842Z,101.50
2022-12-19T19:01:12.869Z,108.20
2022-12-19T19:03:45.414Z,113.40
2022-12-19T19:06:19.179Z,102.20
2022-12-19T19:08:50.584Z,106.30
2022-12-19T19:11:45.575Z,102.40
2022-12-19T19:14:16.069Z,97.80
2022-12-19T19:16:46.804Z,118.30
2022-12-19T19:19:18.971Z,105.60
2022-12-19T19:21:50.103Z,99.80
2022-12-19T19:24:22.227Z,116.20
2022-12-19T19:26:53.061Z,96.50
2022-12-19T19:29:23.686Z,116.70
2022-12-19T19:31:54.733Z,106.00
2022-12-19T19:34:27.443Z,105.00
2022-12-19T19:36:59.364Z,99.60
2022-12-19T19:39:32.837Z,120.40
2022-12-19T19:42:05.320Z,104.60
2022-12-19T19:44:35.970Z,104.40
2022-12-19T19:47:06.872Z,101.80
2022-12-19T19:49:37.546Z,116.50
2022-12-19T19:52:08.195Z,107.70
2022-12-19T19:54:38.807Z,123.20
2022-12-19T19:57:09.857Z,112.90
2022-12-19T19:59:40.573Z,112.50
2022-12-19T20:02:12.975Z,105.90
2022-12-19T20:04:48.474Z,115.40
2022-12-19T20:07:19.609Z,110.80
2022-12-19T20:09:50.691Z,108.90
2022-12-19T20:12:21.873Z,118.10
2022-12-19T20:14:52.788Z,110.80
2022-12-19T20:17:23.707Z,115.50
2022-12-19T20:19:54.181Z,104.50
2022-12-19T20:22:25.009Z,117.90
2022-12-19T20:24:55.681Z,117.60
2022-12-19T20:27:26.633Z,116.60
2022-12-19T20:29:57.870Z,105.80
2022-12-19T20:32:30.551Z,111.40
2022-12-19T20:35:01.229Z,130.30
2022-12-19T20:37:33.047Z,109.80
2022-12-19T20:40:06.001Z,129.00
2022-12-19T20:42:37.377Z,116.60
2022-12-19T20:45:08.835Z,125.00
2022-12-19T20:47:40.071Z,108.60
2022-12-19T20:50:13.037Z,102.60
2022-12-19T20:52:44.000Z,116.10
2022-12-19T20:55:15.045Z,113.80
2022-12-19T20:57:45.977Z,116.10
2022-12-19T21:00:18.243Z,114.70
2022-12-19T21:03:25.917Z,121.10
2022-12-19T21:05:40.084Z,116.70
2022-12-19T21:08:10.944Z,117.50
2022-12-19T21:10:41.654Z,110.30
2022-12-19T21:13:12.595Z,117.40
2022-12-19T21:15:43.140Z,127.40
2022-12-19T21:18:14.220Z,120.90
2022-12-19T21:20:44.890Z,118.70
2022-12-19T21:23:15.690Z,116.80
2022-12-19T21:25:46.405Z,118.00
2022-12-19T21:28:17.399Z,119.70
2022-12-19T21:30:48.072Z,122.80
2022-12-19T21:33:18.892Z,116.00
2022-12-19T21:35:49.463Z,125.50
2022-12-19T21:38:20.252Z,123.50
2022-12-19T21:40:51.115Z,122.20
2022-12-19T21:43:21.803Z,127.10
2022-12-19T21:45:52.432Z,119.80
2022-12-19T21:48:23.325Z,123.30
2022-12-19T21:50:57.943Z,121.20
2022-12-19T21:53:28.942Z,127.00
2022-12-19T21:56:04.989Z,131.30
2022-12-19T21:58:36.158Z,116.10
2022-12-19T22:01:08.572Z,118.00
2022-12-19T22:03:40.186Z,111.00
2022-12-19T22:06:15.210Z,122.30
2022-12-19T22:08:45.841Z,119.40
2022-12-19T22:11:17.901Z,124.00
2022-12-19T22:13:49.757Z,117.70
2022-12-19T22:16:20.607Z,119.00
2022-12-19T22:18:53.104Z,114.30
2022-12-19T22:21:24.049Z,118.50
2022-12-19T22:23:58.973Z,125.50
2022-12-19T22:26:30.373Z,122.60
2022-12-19T22:29:01.219Z,129.50
2022-12-19T22:31:33.206Z,117.10
2022-12-19T22:34:04.721Z,126.40
2022-12-19T22:36:36.177Z,125.60
2022-12-19T22:39:08.177Z,132.70
2022-12-19T22:41:39.798Z,125.80
2022-12-19T22:44:15.372Z,120.00
2022-12-19T22:46:46.271Z,113.70
2022-12-19T22:49:17.772Z,118.90
2022-12-19T22:51:48.874Z,114.90
2022-12-19T22:54:19.660Z,108.10
2022-12-19T22:56:50.645Z,126.30
2022-12-19T22:59:21.549Z,115.90
2022-12-19T23:01:53.452Z,124.00
2022-12-19T23:04:24.416Z,121.00
2022-12-19T23:06:55.315Z,112.90
2022-12-19T23:09:26.266Z,127.80
2022-12-19T23:11:57.358Z,124.90
2022-12-19T23:14:28.128Z,119.90
2022-12-19T23:16:58.898Z,120.30
2022-12-19T23:19:29.713Z,114.80
2022-12-19T23:22:00.487Z,127.70
2022-12-19T23:24:31.582Z,124.00
2022-12-19T23:27:03.945Z,120.60
2022-12-19T23:29:34.582Z,116.40
2022-12-19T23:32:05.791Z,117.40
2022-12-19T23:34:37.306Z,116.90
2022-12-19T23:37:11.131Z,112.20
2022-12-19T23:39:42.529Z,119.30
2022-12-19T23:42:13.327Z,126.20
2022-12-19T23:44:44.713Z,130.80
2022-12-19T23:47:15.552Z,123.20
2022-12-19T23:49:46.020Z,134.30
2022-12-19T23:52:17.378Z,138.00
2022-12-19T23:54:47.966Z,130.10
2022-12-19T23:57:18.885Z,118.50
2022-12-19T23:59:50.125Z,124.80
